Impacts TAF Board
For situational awareness. Not to be used for flight planning purposes.
IDs:

KSAN - San Diego Intl Arpt, CA, US

Issued at 1440 UTC 21 May 2019
Updated at 1506 UTC 21 May 2019
Potential Impact None Slight Moderate High
Time<<22/04Z 22/05Z 22/06Z 22/07Z 22/08Z 22/09Z 22/10Z 22/11Z 22/12Z 22/13Z 22/14Z 22/15Z 22/16Z>>
Type PRVL PRVL PRVL PRVL PRVL PRVL PRVL PRVL PRVL PRVL PRVL PRVL PRVL
VIS >6 >6 >6 >6 >6 >6 >6 >6 >6 >6 >6 >6 >6
CIG 25 25 25 25 25 25 25 25 25 25 25 25 25
Cover BKN OVC OVC OVC OVC OVC OVC OVC OVC OVC OVC OVC OVC
FltCat MVFR MVFR MVFR MVFR MVFR MVFR MVFR MVFR MVFR MVFR MVFR MVFR MVFR
WX VCSH -- -- -- -- -- -- -- -- -- -- -- --
WDir 260 260 260 260 260 260 260 260 260 260 260 260 260
WSpd 13 16 16 16 16 16 16 16 16 16 16 16 16
WGst 20 26 26 26 26 26 26 26 26 26 26 26 26
Raw TAF
KSAN 211440Z 2115/2218 26008KT P6SM SCT025 BKN035
  FM212000 26013G20KT P6SM VCSH BKN025 BKN035
  FM220500 26016G26KT P6SM OVC025


METAR Board
Radar Display
Forecast Discussion
For situational awareness. Not to be used for flight planning purposes.